Time;durP1;ratioP1;P1;durP2;ratioP2;P2;SDS_P1;SDS_P2;PMS_P1;PMS_P2;Temp;Humidity;BMP_temperature;BMP_pressure;BME280_temperature;BME280_humidity;BME280_pressure;Samples;Min_cycle;Max_cycle;Signal;HPM_P1;HPM_P2
2021/11/21 00:00:15;;;;;;;20.70;14.00;;;;;;;10.60;69.83;98865.07;212647;1328;139287;-58
2021/11/21 00:05:43;;;;;;;18.80;13.40;;;;;;;10.64;69.75;98862.19;212677;1327;141982;-58
2021/11/21 00:10:46;;;;;;;19.20;13.70;;;;;;;10.66;69.97;98860.80;212461;1328;140735;-60
2021/11/21 00:15:49;;;;;;;18.90;13.90;;;;;;;10.68;69.61;98858.73;212798;1324;140433;-57
2021/11/21 00:20:52;;;;;;;18.70;13.70;;;;;;;10.68;69.69;98853.39;212429;1328;139186;-57
2021/11/21 00:25:57;;;;;;;18.30;12.50;;;;;;;10.69;69.51;98845.38;212155;1327;139094;-58
2021/11/21 00:31:00;;;;;;;19.10;12.80;;;;;;;10.66;69.45;98843.59;212055;1331;139646;-60
2021/11/21 00:36:04;;;;;;;20.10;13.20;;;;;;;10.67;69.41;98830.43;212268;1327;141364;-59
2021/11/21 00:41:07;;;;;;;17.30;12.00;;;;;;;10.70;69.72;98824.73;212101;1324;140374;-58
2021/11/21 00:46:10;;;;;;;16.20;11.50;;;;;;;10.69;69.44;98820.70;212837;1326;139393;-58
2021/11/21 00:51:15;;;;;;;16.40;12.20;;;;;;;10.67;69.32;98813.36;212182;1328;139594;-58
2021/11/21 00:56:18;;;;;;;18.10;12.10;;;;;;;10.67;69.18;98799.38;212434;1328;140021;-59
2021/11/21 01:01:22;;;;;;;13.20;10.20;;;;;;;10.62;69.22;98796.11;212543;1327;139772;-57
2021/11/21 01:06:25;;;;;;;16.00;11.20;;;;;;;10.58;69.26;98794.41;212002;1331;140527;-59
2021/11/21 01:11:28;;;;;;;16.70;11.00;;;;;;;10.56;69.46;98784.80;212399;1331;139668;-57
2021/11/21 01:16:32;;;;;;;18.50;11.80;;;;;;;10.51;69.30;98778.42;212114;1328;139324;-61
2021/11/21 01:21:36;;;;;;;16.80;11.90;;;;;;;10.45;69.41;98770.29;212047;1324;141601;-58
2021/11/21 01:26:43;;;;;;;17.00;12.10;;;;;;;10.42;69.28;98770.86;212057;1332;140065;-59
2021/11/21 01:31:47;;;;;;;13.60;10.50;;;;;;;10.40;69.35;98763.16;212423;1331;139240;-59
2021/11/21 01:36:50;;;;;;;16.00;11.20;;;;;;;10.40;69.35;98751.48;212594;1328;140539;-59
2021/11/21 01:41:54;;;;;;;14.30;10.20;;;;;;;10.41;69.04;98740.05;212075;1329;140011;-58
2021/11/21 01:46:57;;;;;;;16.30;10.80;;;;;;;10.36;68.94;98732.92;212486;1330;139565;-57
2021/11/21 01:52:00;;;;;;;13.50;10.50;;;;;;;10.30;69.17;98726.73;211922;1331;139855;-58
2021/11/21 01:57:04;;;;;;;13.50;10.30;;;;;;;10.29;68.98;98721.52;212184;1329;139732;-59
2021/11/21 02:02:07;;;;;;;13.50;10.00;;;;;;;10.28;68.97;98714.84;212315;1325;139880;-60
2021/11/21 02:07:11;;;;;;;12.30;8.40;;;;;;;10.30;69.34;98705.30;212396;1328;141115;-60
2021/11/21 02:12:15;;;;;;;14.50;9.80;;;;;;;10.37;69.03;98686.22;212019;1323;140587;-56
2021/11/21 02:17:18;;;;;;;13.60;9.90;;;;;;;10.41;69.05;98675.50;212561;1322;139295;-58
2021/11/21 02:22:21;;;;;;;12.30;8.80;;;;;;;10.38;68.85;98665.55;212272;1324;139385;-59
2021/11/21 02:27:30;;;;;;;13.60;9.40;;;;;;;10.33;68.61;98661.48;212068;1331;140629;-61
2021/11/21 02:32:34;;;;;;;12.00;8.90;;;;;;;10.32;68.65;98654.16;211640;1331;139512;-62
2021/11/21 02:37:37;;;;;;;12.30;9.00;;;;;;;10.26;68.81;98654.85;212538;1328;139479;-59
2021/11/21 02:42:41;;;;;;;11.70;9.10;;;;;;;10.27;68.48;98646.83;212111;1325;140759;-58
2021/11/21 02:47:45;;;;;;;11.50;8.40;;;;;;;10.24;68.29;98637.95;212754;1325;139814;-58
2021/11/21 02:52:49;;;;;;;12.40;9.00;;;;;;;10.18;68.58;98634.77;211951;1331;139940;-60
2021/11/21 02:57:53;;;;;;;14.70;9.10;;;;;;;10.14;68.64;98628.86;212153;1328;139379;-59
2021/11/21 03:02:56;;;;;;;12.90;8.30;;;;;;;10.09;68.41;98619.83;211786;1332;140330;-58
2021/11/21 03:08:01;;;;;;;11.10;7.40;;;;;;;10.05;68.34;98608.20;212080;1330;139569;-59
2021/11/21 03:13:07;;;;;;;9.90;7.30;;;;;;;10.04;68.58;98602.41;212497;1325;227322;-59
2021/11/21 03:18:10;;;;;;;11.10;7.20;;;;;;;10.03;68.49;98592.02;212427;1322;139418;-58
2021/11/21 03:23:13;;;;;;;12.30;8.20;;;;;;;10.00;68.06;98585.17;212503;1325;139387;-60
2021/11/21 03:28:16;;;;;;;11.30;7.50;;;;;;;9.93;68.33;98577.60;212012;1329;139731;-57
2021/11/21 03:33:19;;;;;;;10.00;7.70;;;;;;;9.89;68.37;98578.80;212189;1327;139215;-59
2021/11/21 03:38:23;;;;;;;10.50;7.90;;;;;;;9.85;68.33;98569.46;212741;1325;140156;-59
2021/11/21 03:43:26;;;;;;;9.60;6.80;;;;;;;9.82;68.30;98570.03;212292;1327;138767;-58
2021/11/21 03:48:29;;;;;;;9.50;6.50;;;;;;;9.82;68.55;98567.95;212633;1323;141228;-57
2021/11/21 03:53:32;;;;;;;10.00;7.20;;;;;;;9.81;68.22;98562.16;211841;1325;140780;-57
2021/11/21 03:58:35;;;;;;;9.50;7.70;;;;;;;9.84;68.61;98560.71;212913;1321;140014;-59
2021/11/21 04:03:40;;;;;;;10.30;7.30;;;;;;;9.87;68.79;98554.49;211941;1328;139378;-59
2021/11/21 04:08:44;;;;;;;10.00;7.80;;;;;;;9.87;68.65;98548.61;212329;1329;140225;-59
2021/11/21 04:13:47;;;;;;;11.40;7.80;;;;;;;9.86;68.65;98544.77;211673;1331;139498;-59
2021/11/21 04:18:50;;;;;;;11.40;7.70;;;;;;;9.85;68.67;98547.16;211573;1325;139525;-60
2021/11/21 04:23:53;;;;;;;11.00;7.90;;;;;;;9.84;68.58;98544.41;212039;1325;140049;-59
2021/11/21 04:28:57;;;;;;;10.90;7.80;;;;;;;9.83;68.73;98542.14;212245;1323;139216;-59
2021/11/21 04:34:00;;;;;;;12.50;8.00;;;;;;;9.84;68.50;98531.98;211920;1338;140190;-56
2021/11/21 04:39:04;;;;;;;13.30;7.70;;;;;;;9.85;68.68;98527.47;212486;1324;139906;-58
2021/11/21 04:44:08;;;;;;;10.70;8.30;;;;;;;9.81;68.48;98530.42;212088;1325;139893;-57
2021/11/21 04:49:11;;;;;;;11.40;8.00;;;;;;;9.76;68.70;98520.82;212113;1323;139112;-60
2021/11/21 04:54:17;;;;;;;10.20;7.10;;;;;;;9.75;68.70;98520.90;211785;1334;142462;-62
2021/11/21 04:59:20;;;;;;;;;;;;;;;9.74;68.63;98513.37;212081;1328;139932;-56
2021/11/21 05:04:24;;;;;;;10.40;7.70;;;;;;;9.66;68.71;98506.25;212656;1326;126284;-59
2021/11/21 05:09:27;;;;;;;14.60;7.90;;;;;;;9.62;68.58;98501.55;212110;1322;141550;-59
2021/11/21 05:14:30;;;;;;;13.00;8.20;;;;;;;9.57;68.52;98494.83;213056;1322;139318;-61
2021/11/21 05:19:33;;;;;;;11.70;8.20;;;;;;;9.50;68.78;98485.59;212066;1328;139213;-64
2021/11/21 05:24:36;;;;;;;12.90;8.00;;;;;;;9.41;68.54;98488.95;212207;1323;139206;-62
2021/11/21 05:29:39;;;;;;;12.40;7.70;;;;;;;9.39;68.67;98478.67;212333;1325;141243;-58
2021/11/21 05:34:43;;;;;;;11.40;8.50;;;;;;;9.36;68.78;98471.95;212885;1322;139996;-60
2021/11/21 05:39:46;;;;;;;13.50;8.00;;;;;;;9.34;68.90;98472.64;212191;1325;138823;-59
2021/11/21 05:44:49;;;;;;;12.10;8.30;;;;;;;9.32;68.92;98469.41;212241;1325;139417;-57
2021/11/21 05:49:52;;;;;;;15.50;8.70;;;;;;;9.29;68.82;98473.02;211989;1331;138782;-58
2021/11/21 05:54:55;;;;;;;14.40;9.40;;;;;;;9.23;69.03;98473.52;212250;1328;139920;-58
2021/11/21 05:59:58;;;;;;;14.70;8.70;;;;;;;9.22;68.79;98482.41;212357;1324;141888;-61
2021/11/21 06:05:01;;;;;;;15.20;9.50;;;;;;;9.17;68.82;98481.15;212166;1324;139829;-60
2021/11/21 06:10:07;;;;;;;13.40;9.30;;;;;;;9.16;69.09;98476.61;212402;1325;141221;-58
2021/11/21 06:15:11;;;;;;;13.60;9.50;;;;;;;9.20;69.14;98476.93;212055;1321;138965;-59
2021/11/21 06:20:14;;;;;;;16.30;9.70;;;;;;;9.22;69.12;98481.88;212265;1324;139946;-58
2021/11/21 06:25:17;;;;;;;12.40;9.00;;;;;;;9.23;69.04;98477.92;212165;1324;139008;-58
2021/11/21 06:30:20;;;;;;;13.50;8.90;;;;;;;9.24;69.10;98468.88;212558;1322;139383;-59
2021/11/21 06:35:23;;;;;;;13.10;8.90;;;;;;;9.20;68.99;98465.20;212156;1325;140257;-61
2021/11/21 06:40:26;;;;;;;13.90;8.50;;;;;;;9.17;69.22;98460.98;212252;1325;140098;-55
2021/11/21 06:45:30;;;;;;;12.40;8.40;;;;;;;9.18;69.05;98455.66;212440;1326;139923;-59
2021/11/21 06:50:33;;;;;;;12.20;8.30;;;;;;;9.17;69.03;98455.33;212426;1325;139438;-57
2021/11/21 06:55:36;;;;;;;10.90;8.30;;;;;;;9.15;69.12;98454.43;212648;1323;138840;-59
2021/11/21 07:00:40;;;;;;;11.40;7.80;;;;;;;9.11;69.07;98454.48;212001;1325;139119;-59
2021/11/21 07:05:43;;;;;;;11.80;7.70;;;;;;;9.10;69.20;98451.89;212939;1322;139173;-59
2021/11/21 07:10:49;;;;;;;11.40;8.10;;;;;;;9.08;69.03;98445.34;212268;1328;138880;-59
2021/11/21 07:15:52;;;;;;;27.50;19.50;;;;;;;9.03;69.00;98443.87;212317;1324;139073;-58
2021/11/21 07:20:55;;;;;;;27.50;20.00;;;;;;;9.14;69.62;98444.23;212094;1324;139739;-59
2021/11/21 07:25:58;;;;;;;13.90;8.50;;;;;;;9.32;69.72;98449.23;212085;1325;141937;-60
2021/11/21 07:31:01;;;;;;;15.10;9.00;;;;;;;9.39;69.42;98446.09;212335;1325;139735;-62
2021/11/21 07:36:05;;;;;;;16.20;10.90;;;;;;;9.64;71.49;98438.91;212272;1326;140534;-61
2021/11/21 07:41:08;;;;;;;12.90;9.10;;;;;;;10.46;71.51;98427.06;212154;1327;139945;-63
2021/11/21 07:46:12;;;;;;;12.70;8.70;;;;;;;10.28;68.82;98417.88;212048;1324;140200;-61
2021/11/21 07:51:15;;;;;;;13.80;9.10;;;;;;;10.01;68.52;98422.89;212808;1322;139844;-60
2021/11/21 07:56:19;;;;;;;12.80;9.10;;;;;;;9.87;68.55;98417.73;212969;1322;140198;-62
2021/11/21 08:01:22;;;;;;;12.10;9.40;;;;;;;9.72;68.42;98410.41;211764;1324;140184;-61
2021/11/21 08:06:25;;;;;;;13.30;9.10;;;;;;;9.65;68.53;98413.17;211768;1327;139319;-60
2021/11/21 08:11:28;;;;;;;12.50;8.00;;;;;;;9.61;68.69;98406.02;212409;1322;139364;-61
2021/11/21 08:16:31;;;;;;;13.70;9.10;;;;;;;9.57;68.62;98400.25;212492;1325;140001;-62
2021/11/21 08:21:34;;;;;;;12.70;9.50;;;;;;;9.54;68.42;98395.13;212048;1325;139160;-60
2021/11/21 08:26:38;;;;;;;10.60;8.70;;;;;;;9.53;68.50;98391.32;212178;1325;139005;-61
2021/11/21 08:31:42;;;;;;;21.30;14.20;;;;;;;9.54;68.65;98395.89;212232;1325;139301;-62
2021/11/21 08:36:45;;;;;;;16.60;11.40;;;;;;;9.64;68.95;98398.17;212327;1322;140078;-59
2021/11/21 08:41:54;;;;;;;15.80;9.10;;;;;;;9.78;68.85;98390.88;211831;1328;139487;-61
2021/11/21 08:46:57;;;;;;;13.90;9.00;;;;;;;9.85;68.59;98388.09;211731;1331;139165;-59
2021/11/21 08:52:04;;;;;;;;;;;;;;;9.90;68.68;98392.84;212486;1323;140083;-60
2021/11/21 08:57:09;;;;;;;14.80;9.70;;;;;;;9.96;68.70;98392.97;212193;1326;125296;-59
2021/11/21 09:02:12;;;;;;;13.70;8.90;;;;;;;9.99;68.42;98394.86;212686;1324;140099;-59
2021/11/21 09:07:15;;;;;;;12.10;8.90;;;;;;;10.00;68.01;98387.77;211996;1324;139284;-59
2021/11/21 09:12:18;;;;;;;12.50;8.80;;;;;;;10.06;68.14;98385.86;212291;1325;140996;-58
2021/11/21 09:17:21;;;;;;;15.40;8.50;;;;;;;10.14;67.87;98381.43;212620;1322;139432;-60
2021/11/21 09:22:24;;;;;;;13.30;9.30;;;;;;;10.23;68.05;98377.05;212077;1325;140254;-62
2021/11/21 09:27:27;;;;;;;13.50;9.30;;;;;;;10.36;67.56;98369.95;212342;1328;140701;-58
2021/11/21 09:32:31;;;;;;;13.20;8.50;;;;;;;10.49;68.26;98364.77;212138;1328;140537;-59
2021/11/21 09:37:35;;;;;;;12.00;8.30;;;;;;;10.54;67.41;98357.11;212584;1325;139261;-59
2021/11/21 09:42:41;;;;;;;10.80;7.50;;;;;;;10.54;66.95;98347.55;212030;1325;139481;-59
2021/11/21 09:47:50;;;;;;;19.60;12.10;;;;;;;10.52;66.99;98344.11;211639;1331;139698;-62
2021/11/21 09:52:53;;;;;;;16.10;10.80;;;;;;;10.58;67.34;98341.63;212232;1325;139778;-62
2021/11/21 09:57:57;;;;;;;11.40;8.70;;;;;;;10.63;67.32;98333.23;212034;1328;139478;-61
2021/11/21 10:03:04;;;;;;;12.00;8.60;;;;;;;10.66;66.95;98318.84;211890;1325;139603;-61
2021/11/21 10:08:16;;;;;;;13.10;7.30;;;;;;;10.69;66.82;98316.12;212081;1328;139883;-59
2021/11/21 10:13:25;;;;;;;10.10;7.60;;;;;;;10.61;66.41;98307.63;212196;1322;140279;-62
2021/11/21 10:18:42;;;;;;;10.80;7.60;;;;;;;10.55;66.24;98302.23;212201;1323;140107;-60
2021/11/21 10:23:46;;;;;;;12.60;7.80;;;;;;;10.55;66.62;98300.45;211900;1325;139919;-60
2021/11/21 10:28:50;;;;;;;11.70;7.90;;;;;;;10.57;66.58;98305.85;211521;1327;140339;-63
2021/11/21 10:33:58;;;;;;;13.30;8.60;;;;;;;10.59;66.48;98304.62;212408;1328;139431;-64
2021/11/21 10:39:06;;;;;;;14.90;9.10;;;;;;;10.60;66.63;98292.67;211903;1323;139953;-62
2021/11/21 10:44:11;;;;;;;13.50;9.70;;;;;;;10.63;66.44;98285.69;212533;1325;139415;-60
2021/11/21 10:49:33;;;;;;;14.00;9.80;;;;;;;10.70;66.43;98287.52;212006;1325;140755;-62
2021/11/21 10:54:37;;;;;;;30.90;20.20;;;;;;;10.71;66.65;98281.75;212317;1322;140098;-61
2021/11/21 10:59:49;;;;;;;17.00;11.30;;;;;;;10.80;66.91;98271.64;212574;1325;142200;-61
2021/11/21 11:05:02;;;;;;;13.60;9.40;;;;;;;10.92;66.50;98268.44;212282;1325;140416;-60
2021/11/21 11:10:24;;;;;;;12.30;9.10;;;;;;;10.98;66.76;98262.46;212632;1322;140425;-60
2021/11/21 11:15:33;;;;;;;14.40;9.40;;;;;;;11.03;66.00;98254.44;212214;1327;205744;-61
2021/11/21 11:20:42;;;;;;;19.90;13.10;;;;;;;11.06;66.24;98251.73;212023;1329;138794;-62
2021/11/21 11:25:46;;;;;;;13.90;9.70;;;;;;;11.10;66.18;98248.77;211773;1331;140766;-62
2021/11/21 11:30:49;;;;;;;12.20;8.80;;;;;;;11.10;65.85;98241.83;212451;1326;139235;-62
2021/11/21 11:35:56;;;;;;;12.10;8.50;;;;;;;11.15;66.08;98242.21;211958;1325;139419;-60
2021/11/21 11:41:02;;;;;;;11.80;8.20;;;;;;;11.21;66.22;98237.59;212197;1325;139762;-61
2021/11/21 11:46:07;;;;;;;10.80;7.20;;;;;;;11.31;65.64;98240.95;212081;1325;139382;-61
2021/11/21 11:51:19;;;;;;;10.80;7.50;;;;;;;11.37;65.72;98233.89;212236;1325;138893;-58
2021/11/21 11:56:55;;;;;;;10.40;7.30;;;;;;;11.51;66.20;98227.25;211587;1332;139979;-60
2021/11/21 12:02:02;;;;;;;11.20;7.70;;;;;;;11.71;66.22;98218.06;211993;1328;139927;-61
2021/11/21 12:07:31;;;;;;;11.80;7.60;;;;;;;12.31;68.08;98213.39;212124;1326;139824;-59
2021/11/21 12:12:57;;;;;;;10.00;6.90;;;;;;;12.87;65.90;98211.40;212498;1324;139275;-57
2021/11/21 12:18:05;;;;;;;10.90;7.20;;;;;;;12.72;64.83;98213.54;212087;1326;139670;-59
2021/11/21 12:23:08;;;;;;;10.10;6.80;;;;;;;12.47;64.12;98214.23;212138;1325;139872;-58
2021/11/21 12:28:13;;;;;;;9.60;7.10;;;;;;;12.19;63.56;98214.58;211936;1324;139712;-58
2021/11/21 12:33:27;;;;;;;13.30;7.40;;;;;;;11.99;63.98;98216.15;212116;1325;139154;-58
2021/11/21 12:38:35;;;;;;;9.70;7.00;;;;;;;11.94;64.24;98224.76;212049;1331;139601;-57
2021/11/21 12:43:38;;;;;;;9.10;6.30;;;;;;;11.84;63.91;98230.52;212079;1325;139140;-57
2021/11/21 12:48:44;;;;;;;148.70;107.00;;;;;;;11.75;64.07;98227.13;212519;1326;139354;-58
2021/11/21 12:53:48;;;;;;;13.90;9.50;;;;;;;11.76;63.87;98226.33;212417;1325;140090;-58
2021/11/21 12:58:51;;;;;;;11.90;7.90;;;;;;;11.73;63.99;98228.00;212258;1328;139863;-57
2021/11/21 13:03:58;;;;;;;10.60;7.50;;;;;;;11.75;64.19;98225.91;212077;1325;139421;-59
2021/11/21 13:09:02;;;;;;;10.30;6.80;;;;;;;11.75;63.41;98221.67;213115;1322;141370;-59
2021/11/21 13:14:05;;;;;;;9.60;6.80;;;;;;;11.71;63.44;98222.16;212457;1325;139712;-60
2021/11/21 13:19:09;;;;;;;14.00;9.30;;;;;;;11.70;63.29;98222.73;212798;1325;140021;-58
2021/11/21 13:24:12;;;;;;;10.90;7.20;;;;;;;11.71;63.53;98218.98;212308;1330;139025;-58
2021/11/21 13:29:18;;;;;;;13.00;7.80;;;;;;;11.74;63.29;98221.72;212553;1323;139444;-58
2021/11/21 13:34:22;;;;;;;11.40;7.10;;;;;;;11.76;63.49;98226.21;212462;1326;139567;-58
2021/11/21 13:39:28;;;;;;;11.60;7.60;;;;;;;11.77;63.42;98226.30;211984;1325;139370;-60
2021/11/21 13:44:37;;;;;;;;;;;;;;;11.77;63.29;98228.73;211897;1325;139227;-58
2021/11/21 13:49:46;;;;;;;11.80;7.50;;;;;;;11.72;63.11;98236.63;212283;1325;126202;-57
2021/11/21 13:54:54;;;;;;;96.30;59.60;;;;;;;11.72;63.66;98240.21;211842;1326;139507;-60
2021/11/21 13:59:59;;;;;;;20.00;11.80;;;;;;;11.77;63.34;98238.36;211750;1332;139816;-56
2021/11/21 14:05:12;;;;;;;13.60;8.40;;;;;;;11.76;63.08;98242.73;212193;1322;139859;-59
2021/11/21 14:10:15;;;;;;;14.40;8.70;;;;;;;11.70;63.22;98250.27;212289;1327;140839;-55
2021/11/21 14:15:26;;;;;;;14.10;8.40;;;;;;;11.64;62.76;98247.23;212214;1329;138930;-57
2021/11/21 14:20:52;;;;;;;15.90;9.50;;;;;;;11.60;63.06;98246.64;211665;1325;139347;-56
2021/11/21 14:26:09;;;;;;;14.70;9.30;;;;;;;11.51;62.60;98244.87;211800;1328;139086;-59
2021/11/21 14:31:23;;;;;;;14.00;8.80;;;;;;;11.45;63.09;98246.95;212595;1324;139130;-58
2021/11/21 14:36:28;;;;;;;13.50;9.20;;;;;;;11.36;62.61;98252.95;212391;1328;139664;-57
2021/11/21 14:41:37;;;;;;;13.30;9.40;;;;;;;11.28;62.54;98260.54;211598;1325;139928;-58
2021/11/21 14:46:42;;;;;;;17.30;10.00;;;;;;;11.21;63.01;98264.78;212388;1324;140342;-57
2021/11/21 14:51:45;;;;;;;14.60;10.50;;;;;;;11.15;62.35;98267.03;211828;1324;139861;-59
2021/11/21 14:56:58;;;;;;;17.00;11.20;;;;;;;11.09;62.84;98270.84;211621;1331;139929;-59
2021/11/21 15:02:01;;;;;;;16.50;11.10;;;;;;;11.07;62.87;98270.45;212599;1326;139626;-60
2021/11/21 15:07:05;;;;;;;15.40;11.30;;;;;;;11.01;62.27;98272.89;212138;1322;140120;-59
2021/11/21 15:12:08;;;;;;;108.50;71.60;;;;;;;10.95;62.90;98281.48;211884;1325;140495;-56
2021/11/21 15:17:12;;;;;;;27.30;16.40;;;;;;;11.04;63.51;98280.30;212182;1328;139971;-59
2021/11/21 15:22:16;;;;;;;19.80;12.90;;;;;;;11.04;62.93;98280.10;212128;1328;139833;-58
2021/11/21 15:27:22;;;;;;;22.40;13.70;;;;;;;11.02;62.52;98278.69;211643;1331;143370;-58
2021/11/21 15:32:25;;;;;;;22.00;13.50;;;;;;;11.02;62.62;98282.23;211675;1331;141038;-59
2021/11/21 15:37:28;;;;;;;18.20;12.80;;;;;;;10.99;62.64;98286.20;212415;1328;139833;-57
2021/11/21 15:42:31;;;;;;;22.00;13.30;;;;;;;10.97;62.41;98294.19;212251;1328;139745;-57
2021/11/21 15:47:34;;;;;;;19.50;13.90;;;;;;;10.90;62.66;98297.30;211833;1329;140056;-58
2021/11/21 15:52:40;;;;;;;21.50;12.90;;;;;;;10.84;62.80;98299.36;212515;1325;140153;-60
2021/11/21 15:57:44;;;;;;;19.70;13.20;;;;;;;10.79;62.65;98304.23;211970;1331;140249;-58
2021/11/21 16:02:50;;;;;;;22.90;14.40;;;;;;;10.75;62.49;98316.23;211918;1322;139708;-60
2021/11/21 16:07:53;;;;;;;162.60;118.20;;;;;;;10.71;62.55;98321.49;212087;1325;139178;-58
2021/11/21 16:12:58;;;;;;;27.90;18.30;;;;;;;10.81;63.31;98326.77;211535;1335;143022;-58
2021/11/21 16:18:02;;;;;;;23.30;15.60;;;;;;;10.87;62.81;98331.61;211726;1330;140413;-58
2021/11/21 16:23:05;;;;;;;24.20;16.30;;;;;;;10.80;62.65;98334.63;212221;1326;140331;-59
2021/11/21 16:28:08;;;;;;;23.80;16.00;;;;;;;10.73;62.74;98335.88;211825;1329;139720;-59
2021/11/21 16:33:11;;;;;;;24.50;16.50;;;;;;;10.66;62.60;98340.13;212000;1325;139652;-59
2021/11/21 16:38:15;;;;;;;28.60;18.70;;;;;;;10.63;62.90;98343.90;212007;1329;139579;-57
2021/11/21 16:43:18;;;;;;;28.80;17.80;;;;;;;10.61;62.85;98348.13;211941;1329;140362;-60
2021/11/21 16:48:21;;;;;;;32.50;20.00;;;;;;;10.61;62.93;98351.30;212448;1327;139512;-59
2021/11/21 16:53:25;;;;;;;34.00;20.90;;;;;;;10.61;63.22;98359.64;211975;1328;139242;-58
2021/11/21 16:58:29;;;;;;;30.50;19.40;;;;;;;10.58;62.75;98364.77;211981;1328;139876;-58
2021/11/21 17:03:32;;;;;;;32.90;20.80;;;;;;;10.53;62.89;98368.05;211867;1329;141494;-58
2021/11/21 17:08:35;;;;;;;33.30;21.40;;;;;;;10.50;62.79;98371.44;212070;1328;141913;-58
2021/11/21 17:13:38;;;;;;;36.90;22.50;;;;;;;10.50;63.00;98369.88;212032;1331;141888;-59
2021/11/21 17:18:41;;;;;;;222.80;143.20;;;;;;;10.53;63.19;98373.48;212110;1328;139194;-59
2021/11/21 17:23:48;;;;;;;36.20;22.10;;;;;;;10.71;63.25;98374.38;211724;1333;141322;-58
2021/11/21 17:28:52;;;;;;;32.30;21.40;;;;;;;10.71;63.14;98374.20;212060;1331;140218;-56
2021/11/21 17:33:55;;;;;;;35.10;22.10;;;;;;;10.69;62.86;98377.34;211634;1334;139775;-57
2021/11/21 17:38:59;;;;;;;34.70;21.70;;;;;;;10.63;62.27;98381.78;211617;1332;139931;-58
2021/11/21 17:44:03;;;;;;;31.40;20.80;;;;;;;10.50;62.19;98390.77;212826;1327;141162;-58
2021/11/21 17:49:06;;;;;;;35.00;22.50;;;;;;;10.41;62.37;98397.75;212188;1326;139559;-59
2021/11/21 17:54:10;;;;;;;35.20;21.60;;;;;;;10.38;62.58;98408.82;211867;1328;140207;-58
2021/11/21 17:59:13;;;;;;;35.60;22.20;;;;;;;10.33;62.53;98417.70;212318;1328;140407;-59
2021/11/21 18:04:16;;;;;;;37.20;22.20;;;;;;;10.25;62.51;98420.17;212464;1328;139416;-59
2021/11/21 18:09:22;;;;;;;33.30;22.90;;;;;;;10.23;62.68;98421.23;213016;1328;139342;-60
2021/11/21 18:14:31;;;;;;;33.70;22.10;;;;;;;10.16;62.44;98417.09;211822;1328;139985;-60
2021/11/21 18:19:41;;;;;;;32.70;22.00;;;;;;;10.12;62.37;98425.19;212427;1325;139455;-61
2021/11/21 18:24:47;;;;;;;35.80;22.50;;;;;;;10.06;62.48;98422.23;212329;1326;139481;-59
2021/11/21 18:29:52;;;;;;;36.10;23.10;;;;;;;10.00;62.53;98427.77;211790;1330;139551;-57
2021/11/21 18:34:56;;;;;;;127.80;98.70;;;;;;;10.01;63.03;98431.83;211521;1332;139939;-60
2021/11/21 18:39:59;;;;;;;35.80;22.70;;;;;;;10.17;63.59;98432.42;212147;1324;140371;-60
2021/11/21 18:45:04;;;;;;;36.20;22.70;;;;;;;10.28;62.93;98431.00;212087;1329;139974;-60
2021/11/21 18:50:08;;;;;;;35.00;24.10;;;;;;;10.29;62.85;98434.83;212155;1328;140454;-54
2021/11/21 18:55:11;;;;;;;39.60;25.40;;;;;;;10.25;62.63;98437.59;211744;1333;139520;-60
2021/11/21 19:00:15;;;;;;;35.10;23.20;;;;;;;10.22;62.74;98442.19;211951;1331;139705;-58
2021/11/21 19:05:22;;;;;;;39.50;25.40;;;;;;;10.16;62.53;98444.89;212123;1322;139746;-60
2021/11/21 19:10:26;;;;;;;35.90;24.50;;;;;;;10.11;62.68;98448.60;212165;1325;139988;-59
2021/11/21 19:15:29;;;;;;;34.00;23.30;;;;;;;10.06;62.46;98454.25;211922;1328;188936;-57
2021/11/21 19:20:35;;;;;;;33.80;20.60;;;;;;;10.00;62.85;98453.10;211734;1330;140146;-59
2021/11/21 19:25:39;;;;;;;29.00;19.40;;;;;;;9.96;62.60;98457.98;211719;1325;140385;-58
2021/11/21 19:30:42;;;;;;;30.30;19.60;;;;;;;9.91;62.52;98461.55;211856;1331;139488;-59
2021/11/21 19:35:45;;;;;;;31.30;20.30;;;;;;;9.86;62.44;98467.71;212618;1324;139794;-58
2021/11/21 19:40:48;;;;;;;404.70;254.80;;;;;;;9.83;62.85;98465.44;212086;1325;139430;-56
2021/11/21 19:45:52;;;;;;;42.30;24.60;;;;;;;9.94;63.06;98470.55;212586;1329;140569;-59
2021/11/21 19:50:55;;;;;;;29.60;19.10;;;;;;;9.98;62.80;98475.41;211972;1328;140159;-58
2021/11/21 19:55:58;;;;;;;26.60;18.10;;;;;;;9.93;62.34;98478.95;211842;1329;140758;-59
2021/11/21 20:01:01;;;;;;;29.60;18.40;;;;;;;9.88;62.59;98480.84;212234;1329;139775;-58
2021/11/21 20:06:04;;;;;;;28.60;18.60;;;;;;;9.85;62.59;98483.58;212226;1326;139572;-60
2021/11/21 20:11:08;;;;;;;29.60;19.00;;;;;;;9.85;62.78;98487.66;212453;1323;139428;-59
2021/11/21 20:16:11;;;;;;;30.60;19.90;;;;;;;9.83;62.45;98486.89;212051;1329;139712;-57
2021/11/21 20:21:15;;;;;;;34.10;20.30;;;;;;;9.82;62.83;98485.77;212374;1329;140464;-60
2021/11/21 20:26:18;;;;;;;29.10;18.50;;;;;;;9.80;62.68;98490.80;212902;1325;140029;-58
2021/11/21 20:36:46;;;;;;;30.20;19.70;;;;;;;9.74;62.47;98504.17;211666;1328;139400;-59
2021/11/21 20:41:51;;;;;;;31.40;19.90;;;;;;;9.72;62.76;98506.98;212540;1325;139849;-60
2021/11/21 20:46:54;;;;;;;30.90;19.60;;;;;;;9.68;62.79;98508.60;212506;1326;139699;-60
2021/11/21 20:51:57;;;;;;;30.30;19.60;;;;;;;9.64;62.73;98516.52;212609;1325;141963;-56
2021/11/21 20:57:00;;;;;;;31.60;20.50;;;;;;;9.60;62.72;98518.16;212202;1322;139793;-59
2021/11/21 21:02:04;;;;;;;33.80;21.10;;;;;;;9.59;62.81;98518.95;212342;1329;139932;-58
2021/11/21 21:07:08;;;;;;;34.50;20.80;;;;;;;9.57;62.85;98521.05;211962;1324;140226;-57
2021/11/21 21:12:11;;;;;;;33.70;20.50;;;;;;;9.54;62.82;98527.47;212659;1325;139672;-59
2021/11/21 21:17:16;;;;;;;37.70;22.50;;;;;;;9.55;62.82;98529.84;212106;1325;140584;-60
2021/11/21 21:22:20;;;;;;;34.50;23.00;;;;;;;9.56;62.89;98532.94;212290;1324;140820;-61
2021/11/21 21:27:24;;;;;;;37.30;23.00;;;;;;;9.57;62.97;98534.52;212493;1325;141778;-58
2021/11/21 21:32:27;;;;;;;36.40;22.20;;;;;;;9.58;63.22;98533.89;212390;1326;138778;-59
2021/11/21 21:37:30;;;;;;;37.70;23.50;;;;;;;9.57;62.82;98537.34;212146;1325;138948;-58
2021/11/21 21:42:50;;;;;;;37.50;23.30;;;;;;;9.55;62.96;98538.34;212396;1331;139611;-57
2021/11/21 21:47:59;;;;;;;38.80;24.10;;;;;;;9.52;63.08;98542.27;212357;1325;139675;-60
2021/11/21 21:53:03;;;;;;;42.70;25.90;;;;;;;9.49;63.13;98542.48;212364;1325;139914;-62
2021/11/21 21:58:08;;;;;;;38.90;25.30;;;;;;;9.48;63.23;98540.19;212062;1322;139445;-60
2021/11/21 22:03:11;;;;;;;42.40;25.30;;;;;;;9.48;63.21;98540.23;212857;1325;142363;-63
2021/11/21 22:08:15;;;;;;;41.70;24.50;;;;;;;9.47;63.17;98547.89;212024;1323;140544;-59
2021/11/21 22:13:19;;;;;;;40.60;25.20;;;;;;;9.44;63.33;98552.52;212102;1325;140015;-57
2021/11/21 22:18:23;;;;;;;41.80;25.40;;;;;;;9.41;63.30;98547.61;211751;1331;139985;-59
2021/11/21 22:23:26;;;;;;;43.10;26.60;;;;;;;9.37;63.16;98545.70;211964;1325;139993;-59
2021/11/21 22:28:29;;;;;;;41.50;25.40;;;;;;;9.37;63.37;98549.44;212196;1327;139932;-60
2021/11/21 22:33:32;;;;;;;41.20;25.80;;;;;;;9.34;63.49;98549.80;212197;1325;139373;-61
2021/11/21 22:38:36;;;;;;;43.70;26.60;;;;;;;9.32;63.30;98549.06;212980;1325;140721;-60
2021/11/21 22:43:39;;;;;;;46.50;27.40;;;;;;;9.31;63.53;98544.90;212021;1326;139370;-59
2021/11/21 22:48:43;;;;;;;44.70;26.80;;;;;;;9.31;63.66;98544.70;212125;1325;139445;-58
2021/11/21 22:53:46;;;;;;;51.40;28.90;;;;;;;9.31;63.66;98550.23;211352;1332;140072;-58
2021/11/21 22:58:50;;;;;;;47.50;28.10;;;;;;;9.33;63.70;98557.87;212262;1325;139400;-58
2021/11/21 23:03:53;;;;;;;50.10;29.40;;;;;;;9.34;63.86;98563.30;212123;1325;139139;-60
2021/11/21 23:08:57;;;;;;;46.10;27.90;;;;;;;9.33;63.91;98565.45;212295;1323;140538;-58